Terminal Aerodrome Forecast
Issued by NWS Pueblo, CO

Home | Current Version | Previous Version | Text Only | Print | Product List | Glossary On
Versions: 1 2 3 4 5 6 7 8 9 10 11 12 13 14 15 16 17 18 19 20 21 22 23 24 25 26 27 28 29 30 31 32 33 34 35 36 37
000
FTUS45 KPUB 020520
TAFPUB
TAF
KPUB 020520Z 0206/0306 VRB05KT P6SM SCT120 SCT150 BKN200
     FM022000 13008KT P6SM FEW070
     FM030100 33008KT P6SM SCT070 SCT120 BKN150=

USA.gov is the U.S. government's official web portal to all federal, state and local government web resources and services.